VATSIM Germany Forum

Zurück   VATSIM Germany Forum > Community > Events

Events Ankündigungen von Events, Checkouts, TV-Terminen, usw.

Antwort
 
LinkBack Themen-Optionen Ansicht
Alt 2018-01-22, 19:40   #201 (permalink)
 
Benutzerbild von Dietmar Brinschwitz
 
Registriert seit: 2005-09-03
Ort: Ansbach
Alter: 56
Beiträge: 1.484
Danke erteilt: 3.636
2.045 Danksagungen in 797 Beiträgen erhalten
Standard

Heute die Neuauflage des "Oldie Day's"

Wir haben heute mal Novemberwetter gebucht haben wir nicht schon fast Februar
Zitat:
EDDN 221720Z VRB01KT 2300 -DZ BR FEW001 OVC003 01/01 Q1010 R28/29//94 NOSIG

TAF EDDN 221700Z 2218/2318 VRB03KT 3500 BR OVC003
TEMPO 2218/2222 2000 -DZ BR
BECMG 2222/2224 28006KT 6000 OVC006
PROB40
TEMPO 2222/2306 3000 -DZ BR
BECMG 2305/2308 SCT007 BKN012
BECMG 2309/2311 SCT010 BKN020
BECMG 2316/2318 14005KT
Aber nichts desto trotz haben sich die "Nembercher" auf viel Verkehr von und nach DüDo zum CPT eingerichtet. Also lasst die Strecke EDDN-EDDL und zurück glühen
__________________
Gruß Dietmar
BER721/DBGUN (F 100/70 - ATR 72/42 - Citation X)
DEGUN/DIDDI (Robin 400 - C 182 - PA 28 - PA31)
Dietmar Brinschwitz ist offline   Mit Zitat antworten
Alt 2018-01-29, 16:21   #202 (permalink)
VATSIM Germany ATC-TD Chief
 
Registriert seit: 2009-10-11
Ort: 3NM nordöstlich DN456
Alter: 63
Beiträge: 4.376
Danke erteilt: 2.945
5.717 Danksagungen in 2.528 Beiträgen erhalten
Standard

Für das am nächsten Samstag stattfindende "ToyFair-FlyIn" müssen heute Vectoren gespart werden. Es ist also verstärkt mit Standard-ILS bzw RNAV-Anflügen zu rechnen.

Mit der Wettervorhersage
Zitat:
EDDN 291100Z 2912/3012 24010KT 9999 OVC020 TEMPO 2912/3002 26015G25KT BKN012 PROB30 TEMPO 2920/3002 4000 -RADZ BKN008 BECMG 3005/3008 29005KT=
dürften die Anflüge voll in IMC durchgeführt werden.

Sollten die Standards nicht funktionieren kann mit SRA-Anflügen geholfen werden.
__________________
Leiter ATC Training vACC Germany | Deputy RG München | VATSIM Supervisor
Bernd Mehl ist offline   Mit Zitat antworten
Alt 2018-02-05, 12:54   #203 (permalink)
VATSIM Germany ATC-TD Chief
 
Registriert seit: 2009-10-11
Ort: 3NM nordöstlich DN456
Alter: 63
Beiträge: 4.376
Danke erteilt: 2.945
5.717 Danksagungen in 2.528 Beiträgen erhalten
Standard

Die Spielwarenmesse ist -auch real- beendet. Die letzten Aussteller und Besucher müssen zurück in die Heimat. Nach Informationen der -realen- Towerbesatzung werden inzwischen 50% der Flugpläne per PDC eingereicht. Diesen Service bietet heute auch der EDDN_GND.

Wer vor der Rückreise noch etwas Zeit hat kann bei bestem VFR-Wetter vorher noch einen Flug über das Messegelände -südwestlich vom Pflichtmeldepunkt Foxtrott- und die nähere Umgebung machen.

Die Nürnberger Crew erwartet euch.

Zitat:
EDDN 050500Z 0506/0606 05003KT CAVOK BECMG 0508/0510 08009KT BECMG 0515/0517 07004KT=
__________________
Leiter ATC Training vACC Germany | Deputy RG München | VATSIM Supervisor
Bernd Mehl ist offline   Mit Zitat antworten
Alt 2018-02-12, 15:48   #204 (permalink)
 
Benutzerbild von Dietmar Brinschwitz
 
Registriert seit: 2005-09-03
Ort: Ansbach
Alter: 56
Beiträge: 1.484
Danke erteilt: 3.636
2.045 Danksagungen in 797 Beiträgen erhalten
Standard

Da heute viele "Narren" und "Jecken" unterwegs sind, bieten wir als TOP Besetzung am Albrecht Dürer Airport für unsere Kunden:

-einen "LM" am Boden
-einen "Chartszeichner" als APP
-einen "Eventler- und NAV Verantwortlichen" als "Sachsen"
und dazwischen noch unseren "Michael".....als TWR

also genügend "Verrückte" in der närrischen Zeit.

Und dazu das heute Wetter:
Zitat:
EDDN 121320Z 30008KT 9999 FEW012TCU BKN056 01/M02 Q1014 R28/29//95 TEMPO 2500 SHSN

TAF EDDN 121100Z 1212/1312 28010KT 9999 BKN020 BKN040
PROB30
TEMPO 1212/1217 30015KT 2000 SHSN BKN010 BKN020CB
PROB30
TEMPO 1217/1222 4000 -SHSN BKN014TCU
BECMG 1217/1219 24005KT
BECMG 1222/1301 13005KT
__________________
Gruß Dietmar
BER721/DBGUN (F 100/70 - ATR 72/42 - Citation X)
DEGUN/DIDDI (Robin 400 - C 182 - PA 28 - PA31)
Dietmar Brinschwitz ist offline   Mit Zitat antworten
Antwort

  VATSIM Germany Forum > Community > Events


Themen-Optionen
Ansicht

Forumregeln
Es ist dir nicht erlaubt, neue Themen zu verfassen.
Es ist dir nicht erlaubt, auf Beiträge zu antworten.
Es ist dir nicht erlaubt, Anhänge hochzuladen.
Es ist dir nicht erlaubt, deine Beiträge zu bearbeiten.

BB-Code ist an.
Smileys sind an.
[IMG] Code ist an.
HTML-Code ist aus.
Trackbacks are an
Pingbacks are an
Refbacks are an



Alle Zeitangaben in WEZ +2. Es ist jetzt 21:47 Uhr.


Powered by vBulletin® Version 3.8.4 (Deutsch)
Copyright ©2000 - 2018, Jelsoft Enterprises Ltd.
Template-Modifikationen durch TMS
© 2006 - 2012 vatsim-germany.org